createdAt,value
2022-11-14T00:01:19.282Z,98559.19
2022-11-14T00:04:06.169Z,98550.19
2022-11-14T00:06:53.299Z,98554.66
2022-11-14T00:09:43.161Z,98552.56
2022-11-14T00:12:29.754Z,98554.88
2022-11-14T00:15:16.569Z,98550.81
2022-11-14T00:18:03.746Z,98555.78
2022-11-14T00:20:51.029Z,98556.41
2022-11-14T00:23:37.864Z,98552.63
2022-11-14T00:26:24.762Z,98557.19
2022-11-14T00:29:12.668Z,98543.63
2022-11-14T00:31:59.423Z,98551.69
2022-11-14T00:34:46.492Z,98548.63
2022-11-14T00:37:33.219Z,98554.22
2022-11-14T00:40:20.227Z,98550.75
2022-11-14T00:43:06.926Z,98539.19
2022-11-14T00:45:53.721Z,98536.16
2022-11-14T00:48:40.664Z,98527.72
2022-11-14T00:51:27.665Z,98537.69
2022-11-14T00:54:14.539Z,98532.69
2022-11-14T00:57:01.319Z,98528.09
2022-11-14T00:59:48.279Z,98529.03
2022-11-14T01:02:35.239Z,98528.34
2022-11-14T01:05:22.136Z,98530.16
2022-11-14T01:08:09.123Z,98525.06
2022-11-14T01:10:55.830Z,98525.06
2022-11-14T01:13:42.759Z,98531.56
2022-11-14T01:16:29.458Z,98527.56
2022-11-14T01:19:16.574Z,98512.47
2022-11-14T01:22:06.450Z,98513.34
2022-11-14T01:24:55.417Z,98515.06
2022-11-14T01:27:42.472Z,98511.16
2022-11-14T01:30:29.265Z,98504.75
2022-11-14T01:33:16.143Z,98505.72
2022-11-14T01:36:03.208Z,98502.44
2022-11-14T01:38:53.228Z,98489.66
2022-11-14T01:41:40.104Z,98495.50
2022-11-14T01:44:49.459Z,98490.50
2022-11-14T01:47:36.301Z,98486.66
2022-11-14T01:50:23.098Z,98482.53
2022-11-14T01:53:10.122Z,98479.19
2022-11-14T01:55:58.820Z,98478.31
2022-11-14T01:58:49.926Z,98473.31
2022-11-14T02:01:38.894Z,98481.81
2022-11-14T02:04:32.436Z,98482.13
2022-11-14T02:07:19.110Z,98480.91
2022-11-14T02:10:11.708Z,98479.00
2022-11-14T02:12:58.649Z,98477.28
2022-11-14T02:15:45.538Z,98476.31
2022-11-14T02:18:32.471Z,98472.88
2022-11-14T02:21:19.427Z,98479.44
2022-11-14T02:24:13.686Z,98484.00
2022-11-14T02:27:00.375Z,98486.66
2022-11-14T02:29:47.246Z,98483.84
2022-11-14T02:32:57.117Z,98485.72
2022-11-14T02:35:40.960Z,98493.06
2022-11-14T02:38:28.028Z,98488.72
2022-11-14T02:41:14.991Z,98491.13
2022-11-14T02:44:01.936Z,98491.31
2022-11-14T02:46:48.941Z,98486.28
2022-11-14T02:49:35.753Z,98485.00
2022-11-14T02:52:22.647Z,98481.22
2022-11-14T02:55:09.994Z,98487.50
2022-11-14T02:57:56.923Z,98491.47
2022-11-14T03:01:05.877Z,98485.66
2022-11-14T03:03:50.155Z,98493.88
2022-11-14T03:06:36.981Z,98492.13
2022-11-14T03:09:23.776Z,98483.47
2022-11-14T03:12:10.650Z,98486.91
2022-11-14T03:14:57.649Z,98489.66
2022-11-14T03:17:44.620Z,98487.09
2022-11-14T03:20:31.578Z,98487.16
2022-11-14T03:23:18.568Z,98492.31
2022-11-14T03:26:07.712Z,98483.72
2022-11-14T03:28:55.630Z,98492.78
2022-11-14T03:31:42.223Z,98494.72
2022-11-14T03:34:29.162Z,98492.41
2022-11-14T03:37:16.074Z,98486.66
2022-11-14T03:40:03.125Z,98497.56
2022-11-14T03:42:50.080Z,98500.34
2022-11-14T03:45:37.544Z,98496.06
2022-11-14T03:48:24.185Z,98498.66
2022-11-14T03:51:11.023Z,98492.16
2022-11-14T03:53:58.165Z,98496.19
2022-11-14T03:56:45.093Z,98490.72
2022-11-14T03:59:31.870Z,98490.28
2022-11-14T04:02:18.851Z,98495.88
2022-11-14T04:05:05.933Z,98490.59
2022-11-14T04:07:52.627Z,98497.00
2022-11-14T04:10:39.609Z,98496.91
2022-11-14T04:13:26.591Z,98496.03
2022-11-14T04:16:13.430Z,98495.84
2022-11-14T04:19:00.463Z,98494.44
2022-11-14T04:21:47.323Z,98489.81
2022-11-14T04:24:34.137Z,98494.22
2022-11-14T04:27:21.138Z,98492.00
2022-11-14T04:30:08.445Z,98493.78
2022-11-14T04:32:55.438Z,98490.69
2022-11-14T04:35:42.475Z,98502.53
2022-11-14T04:38:29.778Z,98503.06
2022-11-14T04:41:16.355Z,98492.94
2022-11-14T04:44:03.485Z,98505.63
2022-11-14T04:46:50.181Z,98505.91
2022-11-14T04:49:37.149Z,98510.34
2022-11-14T04:52:24.045Z,98504.72
2022-11-14T04:55:11.164Z,98507.06
2022-11-14T04:57:58.016Z,98502.19
2022-11-14T05:00:44.558Z,98508.53
2022-11-14T05:03:31.602Z,98506.06
2022-11-14T05:06:18.475Z,98510.06
2022-11-14T05:09:05.382Z,98514.44
2022-11-14T05:11:52.607Z,98517.34
2022-11-14T05:14:39.407Z,98515.94
2022-11-14T05:17:26.524Z,98511.00
2022-11-14T05:20:13.723Z,98505.13
2022-11-14T05:23:00.656Z,98512.22
2022-11-14T05:25:47.864Z,98515.38
2022-11-14T05:28:34.819Z,98510.44
2022-11-14T05:31:21.715Z,98513.78
2022-11-14T05:34:08.747Z,98522.28
2022-11-14T05:36:55.869Z,98515.72
2022-11-14T05:39:42.986Z,98519.34
2022-11-14T05:42:30.026Z,98510.53
2022-11-14T05:45:16.905Z,98531.50
2022-11-14T05:48:03.989Z,98524.22
2022-11-14T05:50:55.369Z,98523.59
2022-11-14T05:53:42.279Z,98527.97
2022-11-14T05:56:29.200Z,98524.75
2022-11-14T05:59:15.854Z,98521.41
2022-11-14T06:02:02.832Z,98524.59
2022-11-14T06:04:49.598Z,98523.84
2022-11-14T06:07:37.441Z,98518.97
2022-11-14T06:10:24.451Z,98517.44
2022-11-14T06:13:11.519Z,98515.16
2022-11-14T06:16:02.303Z,98527.66
2022-11-14T06:18:49.600Z,98511.66
2022-11-14T06:21:36.368Z,98520.56
2022-11-14T06:24:23.203Z,98520.16
2022-11-14T06:27:10.000Z,98522.16
2022-11-14T06:29:56.905Z,98521.97
2022-11-14T06:32:43.801Z,98521.47
2022-11-14T06:35:33.425Z,98522.38
2022-11-14T06:38:20.080Z,98518.28
2022-11-14T06:41:17.662Z,98522.75
2022-11-14T06:44:04.703Z,98526.69
2022-11-14T06:46:51.816Z,98519.63
2022-11-14T06:49:40.671Z,98516.34
2022-11-14T06:52:27.584Z,98516.66
2022-11-14T06:55:14.584Z,98516.00
2022-11-14T06:58:01.446Z,98514.06
2022-11-14T07:00:48.357Z,98508.16
2022-11-14T07:03:35.328Z,98509.31
2022-11-14T07:06:23.837Z,98504.91
2022-11-14T07:09:11.053Z,98496.00
2022-11-14T07:11:57.979Z,98496.34
2022-11-14T07:14:45.124Z,98498.09
2022-11-14T07:17:31.971Z,98492.53
2022-11-14T07:20:19.058Z,98499.22
2022-11-14T07:23:06.228Z,98499.88
2022-11-14T07:25:53.036Z,98491.72
2022-11-14T07:28:41.269Z,98492.84
2022-11-14T07:31:28.234Z,98485.94
2022-11-14T07:34:15.184Z,98481.81
2022-11-14T07:37:02.127Z,98487.72
2022-11-14T07:39:49.053Z,98486.47
2022-11-14T07:42:35.911Z,98472.53
2022-11-14T07:45:22.677Z,98481.03
2022-11-14T07:48:09.612Z,98483.91
2022-11-14T07:51:03.898Z,98486.47
2022-11-14T07:53:52.964Z,98477.19
2022-11-14T07:56:39.858Z,98484.38
2022-11-14T07:59:26.660Z,98480.53
2022-11-14T08:02:14.675Z,98465.31
2022-11-14T08:05:01.536Z,98472.69
2022-11-14T08:07:51.251Z,98462.94
2022-11-14T08:10:37.922Z,98460.47
2022-11-14T08:13:32.310Z,98464.28
2022-11-14T08:16:19.812Z,98464.13
2022-11-14T08:19:06.989Z,98464.00
2022-11-14T08:21:53.650Z,98462.69
2022-11-14T08:24:40.462Z,98462.22
2022-11-14T08:27:27.501Z,98454.84
2022-11-14T08:30:14.658Z,98449.59
2022-11-14T08:33:05.433Z,98450.16
2022-11-14T08:35:52.373Z,98459.91
2022-11-14T08:38:39.325Z,98451.69
2022-11-14T08:41:26.465Z,98451.78
2022-11-14T08:44:13.151Z,98453.06
2022-11-14T08:47:00.712Z,98444.88
2022-11-14T08:49:47.534Z,98448.47
2022-11-14T08:52:34.462Z,98438.50
2022-11-14T08:55:21.589Z,98441.00
2022-11-14T08:58:08.496Z,98440.41
2022-11-14T09:00:55.314Z,98436.44
2022-11-14T09:03:42.416Z,98434.63
2022-11-14T09:06:29.368Z,98437.28
2022-11-14T09:09:16.427Z,98443.00
2022-11-14T09:12:03.107Z,98431.50
2022-11-14T09:14:50.657Z,98435.50
2022-11-14T09:17:37.649Z,98426.19
2022-11-14T09:20:28.519Z,98432.75
2022-11-14T09:23:19.432Z,98417.41
2022-11-14T09:26:09.854Z,98422.94
2022-11-14T09:28:56.993Z,98409.84
2022-11-14T09:31:43.785Z,98421.47
2022-11-14T09:34:30.715Z,98407.56
2022-11-14T09:37:17.820Z,98408.75
2022-11-14T09:40:05.047Z,98400.88
2022-11-14T09:42:54.867Z,98405.81
2022-11-14T09:45:44.225Z,98397.19
2022-11-14T09:48:31.507Z,98393.16
2022-11-14T09:51:41.551Z,98386.09
2022-11-14T09:54:32.113Z,98396.44
2022-11-14T09:57:20.086Z,98379.19
2022-11-14T10:00:35.712Z,98383.94
2022-11-14T10:03:43.873Z,98382.28
2022-11-14T10:06:36.249Z,98370.38
2022-11-14T10:10:03.896Z,98369.72
2022-11-14T10:13:12.570Z,98366.66
2022-11-14T10:16:08.421Z,98367.00
2022-11-14T10:19:03.980Z,98369.06
2022-11-14T10:21:59.622Z,98361.59
2022-11-14T10:24:49.080Z,98351.16
2022-11-14T10:27:46.517Z,98347.84
2022-11-14T10:31:05.960Z,98342.56
2022-11-14T10:34:31.939Z,98335.91
2022-11-14T10:37:25.701Z,98336.44
2022-11-14T10:40:39.743Z,98337.28
2022-11-14T10:43:40.595Z,98321.69
2022-11-14T10:46:32.898Z,98320.22
2022-11-14T10:49:24.268Z,98312.59
2022-11-14T10:52:15.571Z,98314.03
2022-11-14T10:55:08.572Z,98304.03
2022-11-14T10:57:55.679Z,98308.03
2022-11-14T11:00:42.556Z,98305.97
2022-11-14T11:03:44.525Z,98307.47
2022-11-14T11:06:31.701Z,98297.38
2022-11-14T11:09:45.424Z,98294.25
2022-11-14T11:12:46.450Z,98288.13
2022-11-14T11:15:39.698Z,98287.84
2022-11-14T11:18:27.271Z,98289.69
2022-11-14T11:21:15.801Z,98282.97
2022-11-14T11:24:02.818Z,98266.47
2022-11-14T11:26:49.914Z,98259.31
2022-11-14T11:29:36.810Z,98268.19
2022-11-14T11:32:29.536Z,98265.94
2022-11-14T11:35:17.518Z,98255.56
2022-11-14T11:38:05.672Z,98261.25
2022-11-14T11:40:54.875Z,98259.34
2022-11-14T11:44:04.724Z,98254.88
2022-11-14T11:46:55.810Z,98251.13
2022-11-14T11:49:53.352Z,98244.47
2022-11-14T11:52:56.610Z,98242.97
2022-11-14T11:55:45.279Z,98237.94
2022-11-14T11:58:36.334Z,98235.66
2022-11-14T12:01:23.212Z,98238.69
2022-11-14T12:04:10.054Z,98234.44
2022-11-14T12:07:04.207Z,98224.44
2022-11-14T12:10:09.837Z,98220.78
2022-11-14T12:13:50.727Z,98219.88
2022-11-14T12:17:15.032Z,98224.22
2022-11-14T12:20:37.230Z,98213.03
2022-11-14T12:23:54.127Z,98214.41
2022-11-14T12:27:10.430Z,98219.09
2022-11-14T12:30:13.986Z,98209.16
2022-11-14T12:33:04.707Z,98205.19
2022-11-14T12:35:59.094Z,98205.69
2022-11-14T12:38:48.893Z,98202.25
2022-11-14T12:41:38.357Z,98198.69
2022-11-14T12:44:28.223Z,98198.53
2022-11-14T12:47:17.376Z,98194.81
2022-11-14T12:50:06.718Z,98196.91
2022-11-14T12:52:56.404Z,98202.16
2022-11-14T12:55:46.479Z,98196.47
2022-11-14T12:59:02.627Z,98197.97
2022-11-14T13:01:52.540Z,98198.88
2022-11-14T13:05:16.563Z,98205.56
2022-11-14T13:08:28.405Z,98188.19
2022-11-14T13:12:05.374Z,98190.63
2022-11-14T13:15:12.046Z,98189.03
2022-11-14T13:18:32.125Z,98181.66
2022-11-14T13:21:47.770Z,98188.06
2022-11-14T13:25:02.890Z,98185.16
2022-11-14T13:31:18.273Z,98175.38
2022-11-14T13:34:42.181Z,98174.25
2022-11-14T13:38:06.289Z,98176.06
2022-11-14T13:41:41.362Z,98179.22
2022-11-14T13:45:11.751Z,98168.03
2022-11-14T13:48:20.126Z,98165.84
2022-11-14T13:51:29.007Z,98173.44
2022-11-14T13:54:18.271Z,98174.63
2022-11-14T13:57:11.694Z,98178.22
2022-11-14T14:00:20.687Z,98170.16
2022-11-14T14:03:11.297Z,98169.84
2022-11-14T14:06:13.548Z,98173.72
2022-11-14T14:09:13.094Z,98180.06
2022-11-14T14:12:21.671Z,98179.38
2022-11-14T14:15:31.794Z,98174.75
2022-11-14T14:18:50.485Z,98179.09
2022-11-14T14:21:48.792Z,98163.13
2022-11-14T14:24:41.424Z,98161.31
2022-11-14T14:27:34.354Z,98161.31
2022-11-14T14:30:21.301Z,98166.41
2022-11-14T14:33:08.337Z,98160.44
2022-11-14T14:35:55.520Z,98161.53
2022-11-14T14:38:42.719Z,98166.25
2022-11-14T14:41:31.700Z,98161.47
2022-11-14T14:44:27.368Z,98170.91
2022-11-14T14:47:32.748Z,98173.34
2022-11-14T14:50:27.768Z,98175.34
2022-11-14T14:53:27.853Z,98180.31
2022-11-14T14:56:21.808Z,98186.84
2022-11-14T14:59:24.857Z,98178.47
2022-11-14T15:02:16.997Z,98190.47
2022-11-14T15:05:04.257Z,98178.06
2022-11-14T15:07:51.955Z,98178.91
2022-11-14T15:10:39.312Z,98187.31
2022-11-14T15:13:27.795Z,98189.13
2022-11-14T15:16:14.499Z,98191.22
2022-11-14T15:19:01.237Z,98193.41
2022-11-14T15:22:06.763Z,98188.47
2022-11-14T15:25:12.180Z,98189.34
2022-11-14T15:28:00.579Z,98194.75
2022-11-14T15:31:04.497Z,98206.19
2022-11-14T15:34:05.339Z,98208.69
2022-11-14T15:37:10.800Z,98210.72
2022-11-14T15:40:10.497Z,98209.34
2022-11-14T15:42:57.473Z,98216.50
2022-11-14T15:45:46.654Z,98211.63
2022-11-14T15:48:34.884Z,98207.59
2022-11-14T15:51:52.024Z,98209.59
2022-11-14T15:54:41.472Z,98214.38
2022-11-14T15:57:28.572Z,98209.44
2022-11-14T16:00:16.095Z,98212.44
2022-11-14T16:03:02.792Z,98209.25
2022-11-14T16:05:49.732Z,98211.38
2022-11-14T16:08:36.540Z,98210.34
2022-11-14T16:11:24.430Z,98204.84
2022-11-14T16:14:12.401Z,98216.34
2022-11-14T16:16:59.131Z,98219.53
2022-11-14T16:19:48.170Z,98217.16
2022-11-14T16:22:34.752Z,98222.59
2022-11-14T16:25:26.690Z,98216.22
2022-11-14T16:28:13.780Z,98222.84
2022-11-14T16:31:00.764Z,98227.97
2022-11-14T16:33:49.040Z,98225.88
2022-11-14T16:36:35.622Z,98228.78
2022-11-14T16:39:22.733Z,98227.38
2022-11-14T16:42:09.952Z,98234.25
2022-11-14T16:45:02.904Z,98242.66
2022-11-14T16:47:50.390Z,98233.03
2022-11-14T16:50:39.608Z,98234.28
2022-11-14T16:53:26.381Z,98233.31
2022-11-14T16:56:13.991Z,98231.47
2022-11-14T16:59:01.810Z,98244.25
2022-11-14T17:01:50.978Z,98240.44
2022-11-14T17:04:37.682Z,98243.09
2022-11-14T17:07:24.729Z,98251.59
2022-11-14T17:10:12.558Z,98257.50
2022-11-14T17:13:01.311Z,98256.38
2022-11-14T17:15:49.862Z,98256.38
2022-11-14T17:18:39.798Z,98247.16
2022-11-14T17:21:27.878Z,98252.28
2022-11-14T17:24:14.986Z,98261.47
2022-11-14T17:27:03.853Z,98253.84
2022-11-14T17:29:52.141Z,98265.91
2022-11-14T17:32:39.453Z,98264.75
2022-11-14T17:35:26.292Z,98259.13
2022-11-14T17:38:13.264Z,98252.50
2022-11-14T17:41:00.146Z,98254.34
2022-11-14T17:43:47.276Z,98254.16
2022-11-14T17:46:34.297Z,98251.09
2022-11-14T17:49:21.537Z,98248.94
2022-11-14T17:52:08.160Z,98249.19
2022-11-14T17:54:55.005Z,98242.88
2022-11-14T17:57:42.286Z,98239.31
2022-11-14T18:00:30.945Z,98241.09
2022-11-14T18:03:17.806Z,98231.56
2022-11-14T18:06:12.626Z,98234.84
2022-11-14T18:09:05.165Z,98230.06
2022-11-14T18:11:51.984Z,98228.53
2022-11-14T18:14:38.933Z,98231.69
2022-11-14T18:17:25.914Z,98237.22
2022-11-14T18:20:13.576Z,98234.84
2022-11-14T18:23:01.545Z,98238.25
2022-11-14T18:25:48.698Z,98238.47
2022-11-14T18:28:35.389Z,98230.72
2022-11-14T18:31:25.031Z,98223.81
2022-11-14T18:34:12.022Z,98230.69
2022-11-14T18:36:58.689Z,98224.75
2022-11-14T18:39:46.969Z,98220.16
2022-11-14T18:42:34.179Z,98215.94
2022-11-14T18:45:21.010Z,98214.22
2022-11-14T18:48:12.371Z,98220.88
2022-11-14T18:51:04.296Z,98219.38
2022-11-14T18:53:52.414Z,98225.56
2022-11-14T18:56:40.773Z,98220.25
2022-11-14T18:59:30.673Z,98217.06
2022-11-14T19:02:18.036Z,98217.56
2022-11-14T19:05:07.456Z,98226.56
2022-11-14T19:07:54.394Z,98222.81
2022-11-14T19:10:41.004Z,98228.13
2022-11-14T19:13:28.504Z,98225.38
2022-11-14T19:16:16.581Z,98226.56
2022-11-14T19:19:04.321Z,98222.78
2022-11-14T19:21:51.293Z,98224.84
2022-11-14T19:24:38.812Z,98224.97
2022-11-14T19:27:29.517Z,98222.41
2022-11-14T19:30:17.510Z,98218.41
2022-11-14T19:33:05.131Z,98229.66
2022-11-14T19:35:51.844Z,98231.81
2022-11-14T19:38:38.544Z,98219.91
2022-11-14T19:41:28.715Z,98221.66
2022-11-14T19:44:15.758Z,98218.22
2022-11-14T19:47:02.818Z,98232.34
2022-11-14T19:49:50.706Z,98226.25
2022-11-14T19:52:38.076Z,98226.22
2022-11-14T19:55:25.251Z,98225.63
2022-11-14T19:58:13.901Z,98237.16
2022-11-14T20:01:04.929Z,98224.56
2022-11-14T20:03:56.645Z,98211.56
2022-11-14T20:06:43.611Z,98222.97
2022-11-14T20:09:30.713Z,98219.31
2022-11-14T20:12:17.773Z,98215.47
2022-11-14T20:15:05.136Z,98227.56
2022-11-14T20:17:52.413Z,98214.69
2022-11-14T20:20:40.544Z,98212.44
2022-11-14T20:23:27.784Z,98207.88
2022-11-14T20:26:15.879Z,98199.88
2022-11-14T20:29:02.870Z,98206.56
2022-11-14T20:31:49.930Z,98206.91
2022-11-14T20:34:36.733Z,98211.25
2022-11-14T20:37:23.670Z,98207.47
2022-11-14T20:40:11.264Z,98199.22
2022-11-14T20:42:58.004Z,98213.09
2022-11-14T20:45:58.213Z,98196.06
2022-11-14T20:48:45.580Z,98204.88
2022-11-14T20:51:32.571Z,98191.81
2022-11-14T20:54:19.276Z,98197.03
2022-11-14T20:57:06.399Z,98196.09
2022-11-14T20:59:54.440Z,98184.91
2022-11-14T21:02:41.095Z,98193.84
2022-11-14T21:05:28.142Z,98192.44
2022-11-14T21:08:19.454Z,98181.06
2022-11-14T21:11:07.921Z,98185.66
2022-11-14T21:13:57.491Z,98188.97
2022-11-14T21:16:44.199Z,98184.28
2022-11-14T21:19:31.074Z,98193.13
2022-11-14T21:22:18.001Z,98194.44
2022-11-14T21:25:05.676Z,98190.25
2022-11-14T21:27:52.691Z,98196.81
2022-11-14T21:30:39.663Z,98194.84
2022-11-14T21:33:30.864Z,98186.75
2022-11-14T21:39:25.543Z,98186.84
2022-11-14T21:42:18.056Z,98172.81
2022-11-14T21:45:06.126Z,98173.84
2022-11-14T21:47:53.238Z,98173.06
2022-11-14T21:50:40.234Z,98173.97
2022-11-14T21:53:28.363Z,98169.78
2022-11-14T21:56:23.464Z,98168.63
2022-11-14T21:59:16.832Z,98170.03
2022-11-14T22:02:22.082Z,98172.41
2022-11-14T22:05:09.075Z,98168.72
2022-11-14T22:07:56.012Z,98175.00
2022-11-14T22:10:42.820Z,98167.56
2022-11-14T22:13:31.195Z,98164.44
2022-11-14T22:16:19.869Z,98152.31
2022-11-14T22:19:06.925Z,98153.47
2022-11-14T22:21:54.584Z,98153.59
2022-11-14T22:24:41.483Z,98152.44
2022-11-14T22:27:28.408Z,98147.00
2022-11-14T22:30:15.290Z,98139.16
2022-11-14T22:33:02.380Z,98133.94
2022-11-14T22:35:48.985Z,98130.38
2022-11-14T22:38:36.295Z,98131.06
2022-11-14T22:41:32.187Z,98134.66
2022-11-14T22:44:19.745Z,98126.31
2022-11-14T22:47:06.588Z,98124.09
2022-11-14T22:49:53.549Z,98125.69
2022-11-14T22:52:40.343Z,98119.59
2022-11-14T22:55:27.303Z,98122.88
2022-11-14T22:58:14.331Z,98127.81
2022-11-14T23:01:01.657Z,98133.72
2022-11-14T23:03:48.820Z,98122.97
2022-11-14T23:06:35.465Z,98120.75
2022-11-14T23:09:22.303Z,98115.09
2022-11-14T23:12:09.134Z,98120.50
2022-11-14T23:14:56.244Z,98114.34
2022-11-14T23:17:43.262Z,98117.97
2022-11-14T23:20:30.188Z,98120.00
2022-11-14T23:23:17.073Z,98107.69
2022-11-14T23:26:11.343Z,98114.47
2022-11-14T23:28:58.379Z,98113.47
2022-11-14T23:31:45.034Z,98110.19
2022-11-14T23:34:31.729Z,98106.34
2022-11-14T23:37:18.691Z,98104.25
2022-11-14T23:40:06.057Z,98111.97
2022-11-14T23:42:52.550Z,98107.88
2022-11-14T23:45:43.118Z,98113.47
2022-11-14T23:48:29.673Z,98109.56
2022-11-14T23:51:17.798Z,98105.94
2022-11-14T23:54:04.484Z,98100.47
2022-11-14T23:56:51.524Z,98102.38
2022-11-14T23:59:38.564Z,98105.50
